sensor_id;sensor_type;location;lat;lon;timestamp;P1;durP1;ratioP1;P2;durP2;ratioP2
53875;SDS011;39789;53.216;5.624;2022-08-06T00:01:01;2.28;;;0.80;;
53875;SDS011;39789;53.216;5.624;2022-08-06T00:03:26;1.33;;;1.00;;
53875;SDS011;39789;53.216;5.624;2022-08-06T00:05:52;1.08;;;0.90;;
53875;SDS011;39789;53.216;5.624;2022-08-06T00:08:18;1.55;;;0.95;;
53875;SDS011;39789;53.216;5.624;2022-08-06T00:10:43;1.67;;;0.90;;
53875;SDS011;39789;53.216;5.624;2022-08-06T00:13:09;1.00;;;0.75;;
53875;SDS011;39789;53.216;5.624;2022-08-06T00:15:35;1.27;;;0.60;;
53875;SDS011;39789;53.216;5.624;2022-08-06T00:18:01;0.70;;;0.70;;
53875;SDS011;39789;53.216;5.624;2022-08-06T00:20:27;0.80;;;0.80;;
53875;SDS011;39789;53.216;5.624;2022-08-06T00:22:52;1.08;;;0.65;;
53875;SDS011;39789;53.216;5.624;2022-08-06T00:25:18;1.48;;;0.95;;
53875;SDS011;39789;53.216;5.624;2022-08-06T00:27:44;1.90;;;1.00;;
53875;SDS011;39789;53.216;5.624;2022-08-06T00:30:10;1.20;;;0.80;;
53875;SDS011;39789;53.216;5.624;2022-08-06T00:32:35;2.22;;;1.27;;
53875;SDS011;39789;53.216;5.624;2022-08-06T00:35:01;1.35;;;0.73;;
53875;SDS011;39789;53.216;5.624;2022-08-06T00:37:28;0.63;;;0.63;;
53875;SDS011;39789;53.216;5.624;2022-08-06T00:39:57;1.45;;;0.88;;
53875;SDS011;39789;53.216;5.624;2022-08-06T00:42:26;3.13;;;0.80;;
53875;SDS011;39789;53.216;5.624;2022-08-06T00:44:52;0.95;;;0.80;;
53875;SDS011;39789;53.216;5.624;2022-08-06T00:47:18;0.98;;;0.88;;
53875;SDS011;39789;53.216;5.624;2022-08-06T00:49:43;0.80;;;0.80;;
53875;SDS011;39789;53.216;5.624;2022-08-06T00:52:09;4.35;;;1.25;;
53875;SDS011;39789;53.216;5.624;2022-08-06T00:54:34;1.48;;;1.38;;
53875;SDS011;39789;53.216;5.624;2022-08-06T00:57:00;0.68;;;0.65;;
53875;SDS011;39789;53.216;5.624;2022-08-06T00:59:26;0.77;;;0.77;;
53875;SDS011;39789;53.216;5.624;2022-08-06T01:01:52;2.05;;;0.98;;
53875;SDS011;39789;53.216;5.624;2022-08-06T01:04:17;1.73;;;0.88;;
53875;SDS011;39789;53.216;5.624;2022-08-06T01:06:43;1.70;;;0.80;;
53875;SDS011;39789;53.216;5.624;2022-08-06T01:09:09;2.40;;;0.82;;
53875;SDS011;39789;53.216;5.624;2022-08-06T01:11:35;2.95;;;1.25;;
53875;SDS011;39789;53.216;5.624;2022-08-06T01:14:00;3.00;;;0.80;;
53875;SDS011;39789;53.216;5.624;2022-08-06T01:19:03;1.65;;;0.70;;
53875;SDS011;39789;53.216;5.624;2022-08-06T01:30:07;1.80;;;1.35;;
53875;SDS011;39789;53.216;5.624;2022-08-06T01:32:38;1.65;;;0.90;;
53875;SDS011;39789;53.216;5.624;2022-08-06T01:35:10;1.35;;;0.80;;
53875;SDS011;39789;53.216;5.624;2022-08-06T01:37:50;1.90;;;0.90;;
53875;SDS011;39789;53.216;5.624;2022-08-06T01:40:23;2.65;;;1.00;;
53875;SDS011;39789;53.216;5.624;2022-08-06T01:42:53;2.17;;;0.80;;
53875;SDS011;39789;53.216;5.624;2022-08-06T01:45:22;0.65;;;0.65;;
53875;SDS011;39789;53.216;5.624;2022-08-06T01:47:51;2.88;;;1.00;;
53875;SDS011;39789;53.216;5.624;2022-08-06T01:50:24;0.88;;;0.70;;
53875;SDS011;39789;53.216;5.624;2022-08-06T01:52:53;0.77;;;0.77;;
53875;SDS011;39789;53.216;5.624;2022-08-06T01:55:19;1.38;;;0.93;;
53875;SDS011;39789;53.216;5.624;2022-08-06T01:57:49;1.02;;;0.90;;
53875;SDS011;39789;53.216;5.624;2022-08-06T02:00:17;1.55;;;1.00;;
53875;SDS011;39789;53.216;5.624;2022-08-06T02:02:44;1.67;;;1.20;;
53875;SDS011;39789;53.216;5.624;2022-08-06T02:05:11;1.95;;;0.90;;
53875;SDS011;39789;53.216;5.624;2022-08-06T02:07:40;2.35;;;1.00;;
53875;SDS011;39789;53.216;5.624;2022-08-06T02:10:08;1.25;;;1.00;;
53875;SDS011;39789;53.216;5.624;2022-08-06T02:12:36;1.00;;;0.75;;
53875;SDS011;39789;53.216;5.624;2022-08-06T02:17:35;0.65;;;0.65;;
53875;SDS011;39789;53.216;5.624;2022-08-06T02:20:06;2.00;;;0.98;;
53875;SDS011;39789;53.216;5.624;2022-08-06T02:22:34;1.05;;;0.82;;
53875;SDS011;39789;53.216;5.624;2022-08-06T02:25:03;1.20;;;1.00;;
53875;SDS011;39789;53.216;5.624;2022-08-06T02:27:33;1.45;;;0.80;;
53875;SDS011;39789;53.216;5.624;2022-08-06T02:30:01;2.13;;;1.38;;
53875;SDS011;39789;53.216;5.624;2022-08-06T02:32:28;1.00;;;0.90;;
53875;SDS011;39789;53.216;5.624;2022-08-06T02:34:54;1.48;;;1.10;;
53875;SDS011;39789;53.216;5.624;2022-08-06T02:37:22;1.50;;;0.95;;
53875;SDS011;39789;53.216;5.624;2022-08-06T02:39:52;0.80;;;0.80;;
53875;SDS011;39789;53.216;5.624;2022-08-06T02:47:33;1.63;;;1.00;;
53875;SDS011;39789;53.216;5.624;2022-08-06T02:50:04;2.20;;;1.00;;
53875;SDS011;39789;53.216;5.624;2022-08-06T02:52:40;1.02;;;0.93;;
53875;SDS011;39789;53.216;5.624;2022-08-06T02:55:16;1.45;;;0.98;;
53875;SDS011;39789;53.216;5.624;2022-08-06T02:57:50;1.77;;;1.00;;
53875;SDS011;39789;53.216;5.624;2022-08-06T03:00:19;1.35;;;0.90;;
53875;SDS011;39789;53.216;5.624;2022-08-06T03:02:47;0.90;;;0.90;;
53875;SDS011;39789;53.216;5.624;2022-08-06T03:05:14;8.25;;;1.52;;
53875;SDS011;39789;53.216;5.624;2022-08-06T03:07:42;0.90;;;0.90;;
53875;SDS011;39789;53.216;5.624;2022-08-06T03:10:09;1.45;;;1.23;;
53875;SDS011;39789;53.216;5.624;2022-08-06T03:12:37;1.95;;;1.20;;
53875;SDS011;39789;53.216;5.624;2022-08-06T03:15:04;2.42;;;1.33;;
53875;SDS011;39789;53.216;5.624;2022-08-06T03:17:31;2.72;;;1.38;;
53875;SDS011;39789;53.216;5.624;2022-08-06T03:19:59;2.63;;;1.25;;
53875;SDS011;39789;53.216;5.624;2022-08-06T03:22:26;3.88;;;1.20;;
53875;SDS011;39789;53.216;5.624;2022-08-06T03:24:53;2.30;;;1.50;;
53875;SDS011;39789;53.216;5.624;2022-08-06T03:27:20;4.90;;;1.40;;
53875;SDS011;39789;53.216;5.624;2022-08-06T03:29:47;3.35;;;1.40;;
53875;SDS011;39789;53.216;5.624;2022-08-06T03:32:15;1.67;;;1.25;;
53875;SDS011;39789;53.216;5.624;2022-08-06T03:34:42;1.27;;;1.20;;
53875;SDS011;39789;53.216;5.624;2022-08-06T03:37:08;1.38;;;1.20;;
53875;SDS011;39789;53.216;5.624;2022-08-06T03:39:36;3.22;;;1.67;;
53875;SDS011;39789;53.216;5.624;2022-08-06T03:42:04;3.05;;;1.45;;
53875;SDS011;39789;53.216;5.624;2022-08-06T03:44:30;2.83;;;1.33;;
53875;SDS011;39789;53.216;5.624;2022-08-06T03:47:13;3.42;;;1.88;;
53875;SDS011;39789;53.216;5.624;2022-08-06T03:49:48;2.80;;;1.30;;
53875;SDS011;39789;53.216;5.624;2022-08-06T03:52:21;3.67;;;1.17;;
53875;SDS011;39789;53.216;5.624;2022-08-06T03:54:53;2.70;;;1.40;;
53875;SDS011;39789;53.216;5.624;2022-08-06T03:57:30;1.60;;;1.50;;
53875;SDS011;39789;53.216;5.624;2022-08-06T04:00:00;2.38;;;1.70;;
53875;SDS011;39789;53.216;5.624;2022-08-06T04:02:32;3.20;;;1.50;;
53875;SDS011;39789;53.216;5.624;2022-08-06T04:05:03;2.20;;;1.60;;
53875;SDS011;39789;53.216;5.624;2022-08-06T04:07:31;1.58;;;1.15;;
53875;SDS011;39789;53.216;5.624;2022-08-06T04:09:58;3.03;;;1.45;;
53875;SDS011;39789;53.216;5.624;2022-08-06T04:12:25;1.60;;;1.50;;
53875;SDS011;39789;53.216;5.624;2022-08-06T04:14:52;3.20;;;1.35;;
53875;SDS011;39789;53.216;5.624;2022-08-06T04:17:19;1.83;;;1.40;;
53875;SDS011;39789;53.216;5.624;2022-08-06T04:19:45;2.88;;;1.52;;
53875;SDS011;39789;53.216;5.624;2022-08-06T04:22:13;1.85;;;1.40;;
53875;SDS011;39789;53.216;5.624;2022-08-06T04:24:39;3.75;;;1.40;;
53875;SDS011;39789;53.216;5.624;2022-08-06T04:27:05;2.97;;;1.23;;
53875;SDS011;39789;53.216;5.624;2022-08-06T04:29:33;4.05;;;1.55;;
53875;SDS011;39789;53.216;5.624;2022-08-06T04:32:02;2.60;;;1.30;;
53875;SDS011;39789;53.216;5.624;2022-08-06T04:34:28;4.03;;;1.48;;
53875;SDS011;39789;53.216;5.624;2022-08-06T04:36:55;1.45;;;1.30;;
53875;SDS011;39789;53.216;5.624;2022-08-06T04:39:23;1.30;;;1.20;;
53875;SDS011;39789;53.216;5.624;2022-08-06T04:41:49;1.85;;;1.40;;
53875;SDS011;39789;53.216;5.624;2022-08-06T04:44:15;3.08;;;1.60;;
53875;SDS011;39789;53.216;5.624;2022-08-06T04:46:41;1.67;;;1.50;;
53875;SDS011;39789;53.216;5.624;2022-08-06T04:49:13;4.30;;;1.60;;
53875;SDS011;39789;53.216;5.624;2022-08-06T04:51:40;1.75;;;1.23;;
53875;SDS011;39789;53.216;5.624;2022-08-06T04:54:09;2.80;;;1.20;;
53875;SDS011;39789;53.216;5.624;2022-08-06T04:56:35;4.43;;;1.80;;
53875;SDS011;39789;53.216;5.624;2022-08-06T04:59:00;4.05;;;1.63;;
53875;SDS011;39789;53.216;5.624;2022-08-06T05:01:26;2.75;;;1.33;;
53875;SDS011;39789;53.216;5.624;2022-08-06T05:03:52;4.15;;;1.30;;
53875;SDS011;39789;53.216;5.624;2022-08-06T05:06:19;3.88;;;1.17;;
53875;SDS011;39789;53.216;5.624;2022-08-06T05:09:00;3.15;;;1.63;;
53875;SDS011;39789;53.216;5.624;2022-08-06T05:11:33;6.85;;;1.65;;
53875;SDS011;39789;53.216;5.624;2022-08-06T05:14:15;3.15;;;1.50;;
53875;SDS011;39789;53.216;5.624;2022-08-06T05:16:49;2.85;;;1.42;;
53875;SDS011;39789;53.216;5.624;2022-08-06T05:19:17;3.25;;;1.45;;
53875;SDS011;39789;53.216;5.624;2022-08-06T05:21:48;5.18;;;1.48;;
53875;SDS011;39789;53.216;5.624;2022-08-06T05:24:15;2.30;;;1.50;;
53875;SDS011;39789;53.216;5.624;2022-08-06T05:26:41;3.33;;;1.75;;
53875;SDS011;39789;53.216;5.624;2022-08-06T05:29:07;1.30;;;1.20;;
53875;SDS011;39789;53.216;5.624;2022-08-06T05:31:35;4.28;;;1.30;;
53875;SDS011;39789;53.216;5.624;2022-08-06T05:34:04;3.97;;;1.30;;
53875;SDS011;39789;53.216;5.624;2022-08-06T05:36:33;2.90;;;1.30;;
53875;SDS011;39789;53.216;5.624;2022-08-06T05:38:59;1.73;;;1.20;;
53875;SDS011;39789;53.216;5.624;2022-08-06T05:41:25;4.00;;;1.42;;
53875;SDS011;39789;53.216;5.624;2022-08-06T05:43:53;2.38;;;1.50;;
53875;SDS011;39789;53.216;5.624;2022-08-06T05:46:19;2.65;;;1.30;;
53875;SDS011;39789;53.216;5.624;2022-08-06T05:49:09;2.00;;;1.58;;
53875;SDS011;39789;53.216;5.624;2022-08-06T06:00:04;5.68;;;2.20;;
53875;SDS011;39789;53.216;5.624;2022-08-06T06:02:41;5.80;;;1.98;;
53875;SDS011;39789;53.216;5.624;2022-08-06T06:05:09;5.10;;;2.10;;
53875;SDS011;39789;53.216;5.624;2022-08-06T06:07:36;5.30;;;2.78;;
53875;SDS011;39789;53.216;5.624;2022-08-06T06:10:03;5.00;;;2.40;;
53875;SDS011;39789;53.216;5.624;2022-08-06T06:12:31;5.57;;;2.50;;
53875;SDS011;39789;53.216;5.624;2022-08-06T06:14:57;4.22;;;2.63;;
53875;SDS011;39789;53.216;5.624;2022-08-06T06:25:11;4.00;;;2.10;;
53875;SDS011;39789;53.216;5.624;2022-08-06T06:27:52;3.50;;;2.25;;
53875;SDS011;39789;53.216;5.624;2022-08-06T06:33:24;4.78;;;1.88;;
53875;SDS011;39789;53.216;5.624;2022-08-06T06:36:30;3.45;;;1.70;;
53875;SDS011;39789;53.216;5.624;2022-08-06T06:39:15;2.83;;;1.75;;
53875;SDS011;39789;53.216;5.624;2022-08-06T06:41:49;5.00;;;2.10;;
53875;SDS011;39789;53.216;5.624;2022-08-06T06:47:14;2.95;;;2.10;;
53875;SDS011;39789;53.216;5.624;2022-08-06T06:49:42;3.33;;;1.70;;
53875;SDS011;39789;53.216;5.624;2022-08-06T06:52:16;3.53;;;2.35;;
53875;SDS011;39789;53.216;5.624;2022-08-06T06:57:53;4.20;;;1.98;;
53875;SDS011;39789;53.216;5.624;2022-08-06T07:00:23;6.50;;;2.10;;
53875;SDS011;39789;53.216;5.624;2022-08-06T07:02:51;3.85;;;1.80;;
53875;SDS011;39789;53.216;5.624;2022-08-06T07:05:18;3.63;;;2.17;;
53875;SDS011;39789;53.216;5.624;2022-08-06T07:07:45;5.38;;;1.90;;
53875;SDS011;39789;53.216;5.624;2022-08-06T07:10:12;5.63;;;2.10;;
53875;SDS011;39789;53.216;5.624;2022-08-06T07:12:39;5.10;;;2.72;;
53875;SDS011;39789;53.216;5.624;2022-08-06T07:15:08;3.75;;;1.90;;
53875;SDS011;39789;53.216;5.624;2022-08-06T07:17:36;2.30;;;2.05;;
53875;SDS011;39789;53.216;5.624;2022-08-06T07:20:04;3.72;;;1.92;;
53875;SDS011;39789;53.216;5.624;2022-08-06T07:22:33;1.92;;;1.45;;
53875;SDS011;39789;53.216;5.624;2022-08-06T07:25:01;3.85;;;1.80;;
53875;SDS011;39789;53.216;5.624;2022-08-06T07:27:34;4.15;;;1.98;;
53875;SDS011;39789;53.216;5.624;2022-08-06T07:30:03;2.55;;;1.80;;
53875;SDS011;39789;53.216;5.624;2022-08-06T07:32:31;4.35;;;1.77;;
53875;SDS011;39789;53.216;5.624;2022-08-06T07:34:59;3.67;;;1.98;;
53875;SDS011;39789;53.216;5.624;2022-08-06T07:37:27;3.72;;;2.42;;
53875;SDS011;39789;53.216;5.624;2022-08-06T07:39:56;6.40;;;1.90;;
53875;SDS011;39789;53.216;5.624;2022-08-06T07:42:24;2.35;;;1.77;;
53875;SDS011;39789;53.216;5.624;2022-08-06T07:44:52;3.38;;;1.65;;
53875;SDS011;39789;53.216;5.624;2022-08-06T07:47:22;2.97;;;1.73;;
53875;SDS011;39789;53.216;5.624;2022-08-06T07:49:59;5.28;;;2.10;;
53875;SDS011;39789;53.216;5.624;2022-08-06T07:52:25;3.63;;;1.63;;
53875;SDS011;39789;53.216;5.624;2022-08-06T07:54:51;5.65;;;1.77;;
53875;SDS011;39789;53.216;5.624;2022-08-06T07:57:18;3.50;;;1.60;;
53875;SDS011;39789;53.216;5.624;2022-08-06T07:59:44;2.05;;;1.60;;
53875;SDS011;39789;53.216;5.624;2022-08-06T08:02:11;2.97;;;1.80;;
53875;SDS011;39789;53.216;5.624;2022-08-06T08:04:38;8.77;;;2.25;;
53875;SDS011;39789;53.216;5.624;2022-08-06T08:09:49;3.88;;;1.65;;
53875;SDS011;39789;53.216;5.624;2022-08-06T08:12:17;3.90;;;1.80;;
53875;SDS011;39789;53.216;5.624;2022-08-06T08:14:44;3.60;;;1.65;;
53875;SDS011;39789;53.216;5.624;2022-08-06T08:17:10;4.75;;;1.90;;
53875;SDS011;39789;53.216;5.624;2022-08-06T08:19:36;2.55;;;1.50;;
53875;SDS011;39789;53.216;5.624;2022-08-06T08:22:10;3.03;;;1.60;;
53875;SDS011;39789;53.216;5.624;2022-08-06T08:24:41;2.28;;;1.63;;
53875;SDS011;39789;53.216;5.624;2022-08-06T08:27:09;2.40;;;1.58;;
53875;SDS011;39789;53.216;5.624;2022-08-06T08:29:36;4.25;;;1.70;;
53875;SDS011;39789;53.216;5.624;2022-08-06T08:32:03;2.25;;;1.77;;
53875;SDS011;39789;53.216;5.624;2022-08-06T08:34:30;4.20;;;2.22;;
53875;SDS011;39789;53.216;5.624;2022-08-06T08:36:56;2.63;;;1.98;;
53875;SDS011;39789;53.216;5.624;2022-08-06T08:39:22;2.95;;;1.60;;
53875;SDS011;39789;53.216;5.624;2022-08-06T08:41:52;3.47;;;2.03;;
53875;SDS011;39789;53.216;5.624;2022-08-06T08:44:24;5.03;;;2.33;;
53875;SDS011;39789;53.216;5.624;2022-08-06T08:46:52;3.78;;;2.10;;
53875;SDS011;39789;53.216;5.624;2022-08-06T08:49:35;4.15;;;1.98;;
53875;SDS011;39789;53.216;5.624;2022-08-06T08:52:06;5.90;;;2.33;;
53875;SDS011;39789;53.216;5.624;2022-08-06T08:54:34;2.95;;;1.73;;
53875;SDS011;39789;53.216;5.624;2022-08-06T08:57:02;3.72;;;2.00;;
53875;SDS011;39789;53.216;5.624;2022-08-06T08:59:29;1.73;;;1.60;;
53875;SDS011;39789;53.216;5.624;2022-08-06T09:01:56;2.30;;;1.70;;
53875;SDS011;39789;53.216;5.624;2022-08-06T09:04:22;4.00;;;2.10;;
53875;SDS011;39789;53.216;5.624;2022-08-06T09:06:48;2.15;;;1.90;;
53875;SDS011;39789;53.216;5.624;2022-08-06T09:09:14;2.35;;;1.65;;
53875;SDS011;39789;53.216;5.624;2022-08-06T09:11:40;3.28;;;1.98;;
53875;SDS011;39789;53.216;5.624;2022-08-06T09:14:07;1.83;;;1.63;;
53875;SDS011;39789;53.216;5.624;2022-08-06T09:16:34;2.58;;;1.73;;
53875;SDS011;39789;53.216;5.624;2022-08-06T09:19:01;3.63;;;2.20;;
53875;SDS011;39789;53.216;5.624;2022-08-06T09:21:28;3.53;;;2.33;;
53875;SDS011;39789;53.216;5.624;2022-08-06T09:23:55;4.15;;;2.20;;
53875;SDS011;39789;53.216;5.624;2022-08-06T09:26:21;2.53;;;2.00;;
53875;SDS011;39789;53.216;5.624;2022-08-06T09:28:47;3.33;;;2.10;;
53875;SDS011;39789;53.216;5.624;2022-08-06T09:31:14;3.50;;;2.28;;
53875;SDS011;39789;53.216;5.624;2022-08-06T09:33:53;2.97;;;1.98;;
53875;SDS011;39789;53.216;5.624;2022-08-06T09:36:20;3.08;;;1.83;;
53875;SDS011;39789;53.216;5.624;2022-08-06T09:38:49;3.42;;;2.00;;
53875;SDS011;39789;53.216;5.624;2022-08-06T09:41:23;3.95;;;2.00;;
53875;SDS011;39789;53.216;5.624;2022-08-06T09:43:51;2.65;;;1.85;;
53875;SDS011;39789;53.216;5.624;2022-08-06T09:46:18;3.08;;;1.88;;
53875;SDS011;39789;53.216;5.624;2022-08-06T09:49:08;1.90;;;1.67;;
53875;SDS011;39789;53.216;5.624;2022-08-06T09:51:35;3.08;;;2.08;;
53875;SDS011;39789;53.216;5.624;2022-08-06T09:54:03;1.73;;;1.58;;
53875;SDS011;39789;53.216;5.624;2022-08-06T09:56:30;2.50;;;1.95;;
53875;SDS011;39789;53.216;5.624;2022-08-06T09:59:01;2.75;;;1.60;;
53875;SDS011;39789;53.216;5.624;2022-08-06T10:01:28;2.80;;;1.50;;
53875;SDS011;39789;53.216;5.624;2022-08-06T10:03:58;2.50;;;1.60;;
53875;SDS011;39789;53.216;5.624;2022-08-06T10:06:27;2.90;;;1.50;;
53875;SDS011;39789;53.216;5.624;2022-08-06T10:09:07;2.00;;;1.75;;
53875;SDS011;39789;53.216;5.624;2022-08-06T10:11:36;2.40;;;1.88;;
53875;SDS011;39789;53.216;5.624;2022-08-06T10:17:18;2.40;;;1.70;;
53875;SDS011;39789;53.216;5.624;2022-08-06T10:19:47;1.83;;;1.60;;
53875;SDS011;39789;53.216;5.624;2022-08-06T10:22:30;1.63;;;1.48;;
53875;SDS011;39789;53.216;5.624;2022-08-06T10:24:56;3.53;;;2.28;;
53875;SDS011;39789;53.216;5.624;2022-08-06T10:27:29;2.55;;;1.77;;
53875;SDS011;39789;53.216;5.624;2022-08-06T10:30:01;3.38;;;1.92;;
53875;SDS011;39789;53.216;5.624;2022-08-06T10:32:31;6.50;;;2.00;;
53875;SDS011;39789;53.216;5.624;2022-08-06T10:35:06;2.72;;;2.10;;
53875;SDS011;39789;53.216;5.624;2022-08-06T10:37:35;2.80;;;2.17;;
53875;SDS011;39789;53.216;5.624;2022-08-06T10:40:06;2.90;;;1.75;;
53875;SDS011;39789;53.216;5.624;2022-08-06T10:42:34;2.58;;;2.10;;
53875;SDS011;39789;53.216;5.624;2022-08-06T10:44:59;3.40;;;2.08;;
53875;SDS011;39789;53.216;5.624;2022-08-06T10:47:27;2.85;;;2.00;;
53875;SDS011;39789;53.216;5.624;2022-08-06T10:49:53;4.10;;;2.45;;
53875;SDS011;39789;53.216;5.624;2022-08-06T10:55:09;2.40;;;2.15;;
53875;SDS011;39789;53.216;5.624;2022-08-06T10:57:36;3.28;;;2.25;;
53875;SDS011;39789;53.216;5.624;2022-08-06T11:00:05;5.93;;;2.17;;
53875;SDS011;39789;53.216;5.624;2022-08-06T11:02:37;2.83;;;2.38;;
53875;SDS011;39789;53.216;5.624;2022-08-06T11:05:16;2.40;;;1.88;;
53875;SDS011;39789;53.216;5.624;2022-08-06T11:11:12;3.50;;;2.28;;
53875;SDS011;39789;53.216;5.624;2022-08-06T11:13:58;2.83;;;2.00;;
53875;SDS011;39789;53.216;5.624;2022-08-06T11:16:34;2.85;;;2.55;;
53875;SDS011;39789;53.216;5.624;2022-08-06T11:19:10;5.75;;;2.28;;
53875;SDS011;39789;53.216;5.624;2022-08-06T11:21:40;2.40;;;2.13;;
53875;SDS011;39789;53.216;5.624;2022-08-06T11:24:07;2.55;;;2.28;;
53875;SDS011;39789;53.216;5.624;2022-08-06T11:26:37;2.78;;;2.28;;
53875;SDS011;39789;53.216;5.624;2022-08-06T11:29:08;2.97;;;2.50;;
53875;SDS011;39789;53.216;5.624;2022-08-06T11:31:39;2.60;;;2.20;;
53875;SDS011;39789;53.216;5.624;2022-08-06T11:34:07;3.40;;;2.53;;
53875;SDS011;39789;53.216;5.624;2022-08-06T11:39:16;2.78;;;2.20;;
53875;SDS011;39789;53.216;5.624;2022-08-06T11:48:05;3.00;;;2.00;;
53875;SDS011;39789;53.216;5.624;2022-08-06T11:50:32;4.72;;;2.33;;
53875;SDS011;39789;53.216;5.624;2022-08-06T11:52:57;2.65;;;2.20;;
53875;SDS011;39789;53.216;5.624;2022-08-06T11:55:23;2.55;;;2.10;;
53875;SDS011;39789;53.216;5.624;2022-08-06T11:58:35;2.65;;;2.00;;
53875;SDS011;39789;53.216;5.624;2022-08-06T12:00:59;5.38;;;2.42;;
53875;SDS011;39789;53.216;5.624;2022-08-06T12:03:36;4.20;;;2.42;;
53875;SDS011;39789;53.216;5.624;2022-08-06T12:06:21;3.95;;;2.05;;
53875;SDS011;39789;53.216;5.624;2022-08-06T12:09:06;3.88;;;2.30;;
53875;SDS011;39789;53.216;5.624;2022-08-06T12:11:32;4.50;;;2.47;;
53875;SDS011;39789;53.216;5.624;2022-08-06T12:13:59;3.65;;;2.30;;
53875;SDS011;39789;53.216;5.624;2022-08-06T12:16:26;2.97;;;2.08;;
53875;SDS011;39789;53.216;5.624;2022-08-06T12:18:53;3.45;;;2.40;;
53875;SDS011;39789;53.216;5.624;2022-08-06T12:21:18;4.10;;;2.25;;
53875;SDS011;39789;53.216;5.624;2022-08-06T12:23:48;3.17;;;2.10;;
53875;SDS011;39789;53.216;5.624;2022-08-06T12:26:15;5.32;;;2.42;;
53875;SDS011;39789;53.216;5.624;2022-08-06T12:28:41;5.05;;;2.22;;
53875;SDS011;39789;53.216;5.624;2022-08-06T12:31:07;3.22;;;2.03;;
53875;SDS011;39789;53.216;5.624;2022-08-06T12:33:33;3.42;;;1.98;;
53875;SDS011;39789;53.216;5.624;2022-08-06T12:36:06;2.47;;;2.20;;
53875;SDS011;39789;53.216;5.624;2022-08-06T12:38:32;2.60;;;2.20;;
53875;SDS011;39789;53.216;5.624;2022-08-06T12:41:07;2.38;;;2.08;;
53875;SDS011;39789;53.216;5.624;2022-08-06T12:43:34;2.33;;;2.00;;
53875;SDS011;39789;53.216;5.624;2022-08-06T12:46:02;2.28;;;2.03;;
53875;SDS011;39789;53.216;5.624;2022-08-06T12:48:30;3.15;;;2.30;;
53875;SDS011;39789;53.216;5.624;2022-08-06T12:51:01;2.55;;;2.30;;
53875;SDS011;39789;53.216;5.624;2022-08-06T12:53:48;4.03;;;2.40;;
53875;SDS011;39789;53.216;5.624;2022-08-06T12:56:20;3.60;;;2.17;;
53875;SDS011;39789;53.216;5.624;2022-08-06T12:58:48;3.30;;;2.03;;
53875;SDS011;39789;53.216;5.624;2022-08-06T13:01:16;2.88;;;1.98;;
53875;SDS011;39789;53.216;5.624;2022-08-06T13:03:45;2.78;;;2.40;;
53875;SDS011;39789;53.216;5.624;2022-08-06T13:06:13;2.42;;;2.22;;
53875;SDS011;39789;53.216;5.624;2022-08-06T13:08:45;3.85;;;2.38;;
53875;SDS011;39789;53.216;5.624;2022-08-06T13:11:15;2.80;;;2.30;;
53875;SDS011;39789;53.216;5.624;2022-08-06T13:13:52;4.40;;;2.40;;
53875;SDS011;39789;53.216;5.624;2022-08-06T13:16:18;2.65;;;2.22;;
53875;SDS011;39789;53.216;5.624;2022-08-06T13:19:02;3.60;;;2.33;;
53875;SDS011;39789;53.216;5.624;2022-08-06T13:21:38;2.92;;;2.45;;
53875;SDS011;39789;53.216;5.624;2022-08-06T13:24:05;3.10;;;2.45;;
53875;SDS011;39789;53.216;5.624;2022-08-06T13:26:33;3.03;;;2.55;;
53875;SDS011;39789;53.216;5.624;2022-08-06T13:29:12;3.75;;;2.38;;
53875;SDS011;39789;53.216;5.624;2022-08-06T13:31:41;3.13;;;2.60;;
53875;SDS011;39789;53.216;5.624;2022-08-06T13:34:08;3.55;;;2.30;;
53875;SDS011;39789;53.216;5.624;2022-08-06T13:36:36;2.92;;;2.60;;
53875;SDS011;39789;53.216;5.624;2022-08-06T13:39:18;3.78;;;2.42;;
53875;SDS011;39789;53.216;5.624;2022-08-06T13:44:40;4.88;;;2.78;;
53875;SDS011;39789;53.216;5.624;2022-08-06T13:47:08;3.33;;;2.50;;
53875;SDS011;39789;53.216;5.624;2022-08-06T13:49:38;3.05;;;2.40;;
53875;SDS011;39789;53.216;5.624;2022-08-06T13:52:04;3.05;;;2.70;;
53875;SDS011;39789;53.216;5.624;2022-08-06T13:54:30;6.65;;;2.70;;
53875;SDS011;39789;53.216;5.624;2022-08-06T13:56:57;3.72;;;2.50;;
53875;SDS011;39789;53.216;5.624;2022-08-06T13:59:24;3.20;;;2.90;;
53875;SDS011;39789;53.216;5.624;2022-08-06T14:01:54;2.95;;;2.53;;
53875;SDS011;39789;53.216;5.624;2022-08-06T14:04:22;3.30;;;2.78;;
53875;SDS011;39789;53.216;5.624;2022-08-06T14:06:49;3.38;;;2.60;;
53875;SDS011;39789;53.216;5.624;2022-08-06T14:09:17;3.45;;;2.80;;
53875;SDS011;39789;53.216;5.624;2022-08-06T14:11:44;4.65;;;2.65;;
53875;SDS011;39789;53.216;5.624;2022-08-06T14:14:09;3.78;;;2.83;;
53875;SDS011;39789;53.216;5.624;2022-08-06T14:16:35;3.22;;;2.78;;
53875;SDS011;39789;53.216;5.624;2022-08-06T14:19:01;4.30;;;2.70;;
53875;SDS011;39789;53.216;5.624;2022-08-06T14:21:27;4.88;;;2.83;;
53875;SDS011;39789;53.216;5.624;2022-08-06T14:27:19;3.40;;;2.78;;
53875;SDS011;39789;53.216;5.624;2022-08-06T14:29:46;3.13;;;2.72;;
53875;SDS011;39789;53.216;5.624;2022-08-06T14:32:12;3.20;;;2.85;;
53875;SDS011;39789;53.216;5.624;2022-08-06T14:34:37;3.63;;;2.60;;
53875;SDS011;39789;53.216;5.624;2022-08-06T14:37:03;3.63;;;3.00;;
53875;SDS011;39789;53.216;5.624;2022-08-06T14:39:29;3.70;;;3.25;;
53875;SDS011;39789;53.216;5.624;2022-08-06T14:41:55;5.00;;;3.03;;
53875;SDS011;39789;53.216;5.624;2022-08-06T14:44:39;3.20;;;2.67;;
53875;SDS011;39789;53.216;5.624;2022-08-06T14:47:20;5.18;;;3.50;;
53875;SDS011;39789;53.216;5.624;2022-08-06T14:53:27;4.10;;;2.80;;
53875;SDS011;39789;53.216;5.624;2022-08-06T14:55:53;4.63;;;2.70;;
53875;SDS011;39789;53.216;5.624;2022-08-06T14:58:18;3.90;;;2.60;;
53875;SDS011;39789;53.216;5.624;2022-08-06T15:00:44;3.38;;;2.83;;
53875;SDS011;39789;53.216;5.624;2022-08-06T15:03:12;3.78;;;3.10;;
53875;SDS011;39789;53.216;5.624;2022-08-06T15:05:40;3.28;;;2.70;;
53875;SDS011;39789;53.216;5.624;2022-08-06T15:08:07;3.60;;;2.60;;
53875;SDS011;39789;53.216;5.624;2022-08-06T15:10:32;3.80;;;2.83;;
53875;SDS011;39789;53.216;5.624;2022-08-06T15:12:58;3.30;;;2.40;;
53875;SDS011;39789;53.216;5.624;2022-08-06T15:15:23;3.92;;;2.63;;
53875;SDS011;39789;53.216;5.624;2022-08-06T15:17:49;2.75;;;2.40;;
53875;SDS011;39789;53.216;5.624;2022-08-06T15:20:15;3.35;;;2.38;;
53875;SDS011;39789;53.216;5.624;2022-08-06T15:22:41;4.15;;;2.33;;
53875;SDS011;39789;53.216;5.624;2022-08-06T15:25:07;3.63;;;2.47;;
53875;SDS011;39789;53.216;5.624;2022-08-06T15:27:33;6.38;;;3.00;;
53875;SDS011;39789;53.216;5.624;2022-08-06T15:29:59;3.17;;;2.40;;
53875;SDS011;39789;53.216;5.624;2022-08-06T15:32:25;3.13;;;2.38;;
53875;SDS011;39789;53.216;5.624;2022-08-06T15:34:51;3.13;;;2.03;;
53875;SDS011;39789;53.216;5.624;2022-08-06T15:37:17;2.47;;;2.20;;
53875;SDS011;39789;53.216;5.624;2022-08-06T15:39:46;2.30;;;2.10;;
53875;SDS011;39789;53.216;5.624;2022-08-06T15:42:12;2.70;;;2.35;;
53875;SDS011;39789;53.216;5.624;2022-08-06T15:44:37;3.42;;;2.03;;
53875;SDS011;39789;53.216;5.624;2022-08-06T15:47:04;1.85;;;1.65;;
53875;SDS011;39789;53.216;5.624;2022-08-06T15:49:30;2.22;;;1.60;;
53875;SDS011;39789;53.216;5.624;2022-08-06T15:51:58;4.85;;;2.17;;
53875;SDS011;39789;53.216;5.624;2022-08-06T15:54:24;1.77;;;1.52;;
53875;SDS011;39789;53.216;5.624;2022-08-06T15:56:51;1.83;;;1.63;;
53875;SDS011;39789;53.216;5.624;2022-08-06T15:59:16;2.38;;;1.92;;
53875;SDS011;39789;53.216;5.624;2022-08-06T16:01:42;1.30;;;1.20;;
53875;SDS011;39789;53.216;5.624;2022-08-06T16:04:08;3.67;;;1.60;;
53875;SDS011;39789;53.216;5.624;2022-08-06T16:10:14;3.13;;;1.90;;
53875;SDS011;39789;53.216;5.624;2022-08-06T16:12:40;1.75;;;1.65;;
53875;SDS011;39789;53.216;5.624;2022-08-06T16:15:09;3.88;;;1.77;;
53875;SDS011;39789;53.216;5.624;2022-08-06T16:17:35;1.88;;;1.50;;